Time;durP1;ratioP1;P1;durP2;ratioP2;P2;SDS_P1;SDS_P2;PMS_P1;PMS_P2;Temp;Humidity;BMP_temperature;BMP_pressure;BME280_temperature;BME280_humidity;BME280_pressure;Samples;Min_cycle;Max_cycle;Signal;HPM_P1;HPM_P2
2021/05/03 00:00:22;;;;;;;4.45;2.30;;;3.80;99.90;;;;;;6178478;23;20564;-82
2021/05/03 00:02:47;;;;;;;7.93;2.58;;;3.90;99.90;;;;;;6153711;23;20028;-82
2021/05/03 00:05:25;;;;;;;4.75;2.50;;;3.80;99.90;;;;;;6178528;23;20024;-82
2021/05/03 00:07:51;;;;;;;6.13;2.83;;;3.90;99.90;;;;;;6189360;23;20021;-81
2021/05/03 00:10:17;;;;;;;2.72;2.45;;;3.90;99.90;;;;;;6178495;23;20022;-82
2021/05/03 00:12:43;;;;;;;6.00;3.03;;;3.80;99.90;;;;;;6180887;23;20021;-82
2021/05/03 00:15:14;;;;;;;3.90;2.83;;;3.90;99.90;;;;;;6179487;23;20044;-82
2021/05/03 00:17:40;;;;;;;4.20;2.83;;;3.90;99.90;;;;;;6180797;23;20451;-82
2021/05/03 00:20:07;;;;;;;2.75;2.55;;;3.90;99.90;;;;;;6178604;23;20031;-82
2021/05/03 00:22:34;;;;;;;3.42;2.80;;;3.90;99.90;;;;;;6179692;23;20806;-82
2021/05/03 00:25:00;;;;;;;5.07;2.70;;;3.90;99.90;;;;;;6180387;23;20351;-82
2021/05/03 00:27:25;;;;;;;4.20;2.70;;;3.90;99.90;;;;;;6180181;23;20016;-82
2021/05/03 00:29:51;;;;;;;3.38;2.55;;;3.80;99.90;;;;;;6180451;23;20021;-82
2021/05/03 00:32:17;;;;;;;4.60;2.80;;;3.80;99.90;;;;;;6182056;23;20021;-82
2021/05/03 00:34:43;;;;;;;6.00;3.10;;;3.70;99.90;;;;;;6182984;23;20028;-81
2021/05/03 00:37:09;;;;;;;4.80;2.88;;;3.80;99.90;;;;;;6180560;23;20021;-81
2021/05/03 00:39:35;;;;;;;3.60;3.00;;;3.80;99.90;;;;;;6181696;23;20013;-81
2021/05/03 00:42:01;;;;;;;5.15;2.90;;;3.80;99.90;;;;;;6181640;23;20087;-82
2021/05/03 00:44:27;;;;;;;7.93;3.03;;;3.90;99.90;;;;;;6181908;23;20076;-83
2021/05/03 00:46:56;;;;;;;5.72;3.20;;;3.90;99.90;;;;;;6182188;23;20021;-82
2021/05/03 00:49:22;;;;;;;3.75;2.30;;;4.00;99.90;;;;;;6181867;23;20525;-82
2021/05/03 00:51:48;;;;;;;6.88;2.72;;;4.10;99.90;;;;;;6156408;23;20051;-82
2021/05/03 00:54:14;;;;;;;3.22;2.38;;;4.10;99.90;;;;;;6155993;23;20021;-82
2021/05/03 00:56:40;;;;;;;3.95;2.67;;;4.10;99.90;;;;;;6182372;23;20335;-82
2021/05/03 00:59:06;;;;;;;2.50;2.30;;;4.00;99.90;;;;;;6156272;23;20029;-83
2021/05/03 01:01:32;;;;;;;3.30;2.70;;;4.20;99.90;;;;;;6155602;23;20095;-82
2021/05/03 01:04:00;;;;;;;5.35;2.33;;;4.10;99.90;;;;;;6182451;23;20083;-81
2021/05/03 01:06:26;;;;;;;5.55;2.58;;;4.00;99.90;;;;;;6155645;23;20017;-81
2021/05/03 01:08:52;;;;;;;2.30;2.10;;;4.00;99.90;;;;;;6156546;23;20044;-82
2021/05/03 01:11:18;;;;;;;4.78;2.67;;;3.80;99.90;;;;;;6181764;23;20017;-82
2021/05/03 01:13:43;;;;;;;3.28;2.63;;;3.90;99.90;;;;;;6156218;23;20021;-82
2021/05/03 01:16:09;;;;;;;4.03;2.72;;;3.90;99.90;;;;;;6155475;23;20347;-82
2021/05/03 01:18:37;;;;;;;2.97;2.72;;;3.80;99.90;;;;;;6182585;23;20017;-82
2021/05/03 01:21:06;;;;;;;4.53;2.70;;;3.70;99.90;;;;;;6156349;23;20017;-82
2021/05/03 01:23:32;;;;;;;3.40;3.10;;;3.60;99.90;;;;;;6155630;23;20048;-82
2021/05/03 01:25:59;;;;;;;3.35;2.72;;;3.60;99.90;;;;;;6155704;23;20025;-82
2021/05/03 01:28:26;;;;;;;6.20;3.30;;;3.60;99.90;;;;;;6181833;23;20017;-82
2021/05/03 01:30:52;;;;;;;6.72;3.22;;;3.60;99.90;;;;;;6182351;23;20032;-82
2021/05/03 01:33:19;;;;;;;3.60;3.30;;;3.60;99.90;;;;;;6182187;23;20107;-82
2021/05/03 01:35:47;;;;;;;4.72;3.30;;;3.60;99.90;;;;;;6181211;23;20072;-82
2021/05/03 01:38:14;;;;;;;4.03;2.88;;;3.60;99.90;;;;;;6181426;23;20506;-82
2021/05/03 01:40:41;;;;;;;4.97;3.33;;;3.60;99.90;;;;;;6182014;23;20013;-82
2021/05/03 01:43:21;;;;;;;5.25;3.33;;;3.50;99.90;;;;;;6181975;23;20025;-81
2021/05/03 01:45:48;;;;;;;9.60;4.57;;;3.50;99.90;;;;;;6182338;23;20040;-81
2021/05/03 01:48:25;;;;;;;6.57;3.67;;;3.50;99.90;;;;;;6180576;23;20021;-82
2021/05/03 01:50:52;;;;;;;4.75;3.58;;;3.50;99.90;;;;;;6182390;23;20036;-82
2021/05/03 01:53:18;;;;;;;7.05;3.30;;;3.50;99.90;;;;;;6180863;23;20021;-82
2021/05/03 01:55:47;;;;;;;7.45;3.33;;;3.50;99.90;;;;;;6182533;23;20087;-82
2021/05/03 01:58:13;;;;;;;4.90;3.83;;;3.50;99.90;;;;;;6154593;23;20099;-83
2021/05/03 02:00:40;;;;;;;6.93;3.20;;;3.60;99.90;;;;;;6155719;23;20023;-82
2021/05/03 02:03:06;;;;;;;5.55;4.43;;;3.60;99.90;;;;;;6181999;23;20017;-82
2021/05/03 02:05:32;;;;;;;10.30;3.80;;;3.60;99.90;;;;;;6181156;23;20021;-81
2021/05/03 02:08:00;;;;;;;4.60;3.15;;;3.60;99.90;;;;;;6156023;23;20021;-81
2021/05/03 02:10:27;;;;;;;5.00;3.55;;;3.60;99.90;;;;;;6154194;23;20043;-81
2021/05/03 02:12:54;;;;;;;5.45;4.03;;;3.60;99.90;;;;;;6181219;23;20040;-80
2021/05/03 02:15:20;;;;;;;7.70;3.88;;;3.50;99.90;;;;;;6154450;23;20024;-81
2021/05/03 02:17:45;;;;;;;6.15;3.78;;;3.60;99.90;;;;;;6155537;23;20029;-81
2021/05/03 02:20:12;;;;;;;5.45;4.07;;;3.50;99.90;;;;;;6155195;23;20144;-82
2021/05/03 02:22:38;;;;;;;8.85;3.70;;;3.60;99.90;;;;;;6155386;23;20025;-81
2021/05/03 02:25:04;;;;;;;4.38;3.97;;;3.50;99.90;;;;;;6131540;23;20021;-80
2021/05/03 02:27:30;;;;;;;6.50;3.58;;;3.60;99.90;;;;;;6180581;23;20076;-81
2021/05/03 02:29:56;;;;;;;4.25;3.35;;;3.60;99.90;;;;;;6131536;23;20021;-81
2021/05/03 02:32:22;;;;;;;5.88;3.40;;;3.70;99.90;;;;;;6180478;23;20059;-82
2021/05/03 02:34:48;;;;;;;5.15;3.60;;;3.60;99.90;;;;;;6131467;23;20024;-80
2021/05/03 02:37:14;;;;;;;7.05;3.40;;;3.60;99.90;;;;;;6130146;23;20701;-82
2021/05/03 02:39:42;;;;;;;4.00;3.55;;;3.60;99.90;;;;;;6155239;23;20021;-81
2021/05/03 02:42:13;;;;;;;3.58;3.28;;;3.60;99.90;;;;;;6156081;23;20422;-80
2021/05/03 02:44:39;;;;;;;3.08;2.72;;;3.60;99.90;;;;;;6181016;23;20017;-81
2021/05/03 02:47:07;;;;;;;3.03;2.78;;;3.60;99.90;;;;;;6164069;23;20029;-81
2021/05/03 02:49:34;;;;;;;5.38;3.20;;;3.60;99.90;;;;;;6180462;23;20095;-80
2021/05/03 02:52:00;;;;;;;2.92;2.63;;;3.70;99.90;;;;;;6180270;23;20024;-80
2021/05/03 02:54:26;;;;;;;4.32;2.40;;;3.80;99.90;;;;;;6178476;23;20344;-81
2021/05/03 02:56:52;;;;;;;3.85;2.42;;;3.80;99.90;;;;;;6155327;23;20025;-80
2021/05/03 02:59:17;;;;;;;10.40;2.25;;;3.90;99.90;;;;;;6178924;23;20095;-81
2021/05/03 03:01:43;;;;;;;1.88;1.77;;;3.90;99.90;;;;;;6179640;23;20027;-80
2021/05/03 03:04:09;;;;;;;2.67;2.42;;;4.00;99.90;;;;;;6181518;23;20024;-80
2021/05/03 03:06:35;;;;;;;2.95;2.20;;;4.00;99.90;;;;;;6154405;23;20571;-81
2021/05/03 03:09:00;;;;;;;4.97;2.75;;;4.10;99.90;;;;;;6155613;23;20017;-80
2021/05/03 03:11:27;;;;;;;2.97;2.75;;;4.10;99.90;;;;;;6178933;23;20069;-81
2021/05/03 03:13:53;;;;;;;3.55;2.47;;;4.10;99.90;;;;;;6181667;23;20016;-81
2021/05/03 03:16:25;;;;;;;4.82;2.88;;;4.20;99.90;;;;;;6154217;23;20020;-81
2021/05/03 03:18:52;;;;;;;3.13;2.63;;;4.30;99.90;;;;;;6189899;23;20032;-80
2021/05/03 03:21:18;;;;;;;4.35;2.60;;;4.30;99.90;;;;;;6180502;23;20021;-81
2021/05/03 03:23:44;;;;;;;3.15;2.80;;;4.30;99.90;;;;;;6180033;23;20075;-80
2021/05/03 03:26:10;;;;;;;7.20;2.97;;;4.40;99.90;;;;;;6179999;23;20048;-81
2021/05/03 03:28:36;;;;;;;3.17;2.85;;;4.40;99.90;;;;;;6178614;23;20044;-80
2021/05/03 03:31:01;;;;;;;3.63;2.58;;;4.50;99.90;;;;;;6179482;23;20021;-80
2021/05/03 03:33:27;;;;;;;4.13;2.97;;;4.50;99.90;;;;;;6178591;23;20435;-80
2021/05/03 03:35:54;;;;;;;4.07;2.75;;;4.50;99.90;;;;;;6155313;23;20542;-81
2021/05/03 03:38:20;;;;;;;5.93;2.92;;;4.50;99.90;;;;;;6178378;23;20036;-80
2021/05/03 03:40:45;;;;;;;4.93;3.08;;;4.50;99.90;;;;;;6179604;23;20045;-81
2021/05/03 03:43:12;;;;;;;5.72;2.97;;;4.50;99.90;;;;;;6179567;23;20039;-80
2021/05/03 03:45:38;;;;;;;3.42;3.08;;;4.50;99.90;;;;;;6178552;23;20047;-80
2021/05/03 03:48:06;;;;;;;4.07;3.00;;;4.60;99.90;;;;;;6181273;23;20016;-80
2021/05/03 03:50:32;;;;;;;3.67;3.28;;;4.60;99.90;;;;;;6153833;23;20454;-80
2021/05/03 03:52:58;;;;;;;4.85;3.40;;;4.50;99.90;;;;;;6154757;23;20032;-81
2021/05/03 03:55:24;;;;;;;5.00;3.90;;;4.60;99.90;;;;;;6129432;23;20024;-80
2021/05/03 03:57:51;;;;;;;6.25;3.60;;;4.60;99.90;;;;;;6154934;23;20020;-80
2021/05/03 04:00:17;;;;;;;5.88;3.65;;;4.60;99.90;;;;;;6154507;23;20075;-82
2021/05/03 04:02:46;;;;;;;7.22;4.15;;;4.70;99.90;;;;;;6154446;23;20447;-80
2021/05/03 04:05:25;;;;;;;6.43;4.38;;;4.70;99.90;;;;;;6180225;23;20436;-80
2021/05/03 04:07:58;;;;;;;4.45;3.63;;;4.70;99.90;;;;;;6191103;23;20076;-80
2021/05/03 04:10:42;;;;;;;7.75;3.72;;;4.70;99.90;;;;;;6155572;23;20024;-80
2021/05/03 04:26:12;;;;;;;7.07;4.95;;;4.80;99.90;;;;;;6154865;23;20075;-80
2021/05/03 04:28:38;;;;;;;4.95;4.25;;;4.90;99.90;;;;;;6180022;23;20813;-80
2021/05/03 04:31:05;;;;;;;5.72;4.15;;;4.90;99.90;;;;;;6180748;23;20021;-81
2021/05/03 04:33:31;;;;;;;5.70;4.53;;;4.90;99.90;;;;;;6153075;23;20108;-81
2021/05/03 04:35:58;;;;;;;6.47;5.43;;;4.90;99.90;;;;;;6180782;23;20024;-80
2021/05/03 04:38:25;;;;;;;9.60;5.28;;;4.90;99.90;;;;;;6153605;23;20347;-81
2021/05/03 04:40:51;;;;;;;12.77;4.63;;;4.90;99.90;;;;;;6154652;23;20100;-81
2021/05/03 04:43:17;;;;;;;10.70;5.18;;;4.90;99.90;;;;;;6154385;23;20483;-80
2021/05/03 04:45:42;;;;;;;6.43;4.60;;;4.90;99.90;;;;;;6179522;23;20036;-80
2021/05/03 04:48:08;;;;;;;5.85;4.38;;;5.00;99.90;;;;;;6176293;23;20024;-81
2021/05/03 04:50:34;;;;;;;5.38;4.70;;;5.00;99.90;;;;;;6153362;23;20053;-82
2021/05/03 04:53:00;;;;;;;4.93;4.53;;;5.00;99.90;;;;;;6179206;23;20054;-81
2021/05/03 04:55:26;;;;;;;5.65;4.50;;;5.00;99.90;;;;;;6179909;23;20128;-81
2021/05/03 04:57:52;;;;;;;7.18;4.97;;;5.00;99.90;;;;;;6179207;23;20478;-81
2021/05/03 05:00:18;;;;;;;5.53;5.03;;;5.10;99.90;;;;;;6180610;23;20120;-81
2021/05/03 05:02:44;;;;;;;7.28;5.03;;;5.10;99.90;;;;;;6180155;23;20101;-80
2021/05/03 05:05:11;;;;;;;5.80;4.95;;;5.10;99.90;;;;;;6179933;23;20443;-80
2021/05/03 05:07:37;;;;;;;5.55;4.97;;;5.10;99.90;;;;;;6179748;23;20029;-80
2021/05/03 05:10:04;;;;;;;6.13;4.63;;;5.10;99.90;;;;;;6180698;23;20447;-80
2021/05/03 05:12:31;;;;;;;6.70;5.30;;;5.20;99.90;;;;;;6179751;23;20021;-80
2021/05/03 05:14:56;;;;;;;9.02;5.40;;;5.10;99.90;;;;;;6179467;23;20017;-80
2021/05/03 05:17:22;;;;;;;5.10;4.60;;;5.10;99.90;;;;;;6181391;23;20347;-82
2021/05/03 05:19:49;;;;;;;7.55;4.65;;;5.20;99.90;;;;;;6181874;23;20017;-79
2021/05/03 05:22:16;;;;;;;7.05;5.55;;;5.20;99.90;;;;;;6182760;23;20096;-80
2021/05/03 05:24:42;;;;;;;13.88;5.55;;;5.20;99.90;;;;;;6179998;23;20021;-81
2021/05/03 05:27:08;;;;;;;11.95;5.97;;;5.20;99.90;;;;;;6182467;23;20465;-80
2021/05/03 05:29:35;;;;;;;6.15;5.22;;;5.20;99.90;;;;;;6179534;23;20021;-81
2021/05/03 05:32:01;;;;;;;10.40;5.78;;;5.30;99.90;;;;;;6182400;23;20051;-80
2021/05/03 05:34:27;;;;;;;13.73;5.88;;;5.30;99.90;;;;;;6181423;23;20024;-82
2021/05/03 05:36:53;;;;;;;10.48;6.18;;;5.30;99.90;;;;;;6182374;23;20465;-80
2021/05/03 05:39:19;;;;;;;16.38;7.57;;;5.30;99.90;;;;;;6156238;23;20088;-80
2021/05/03 05:41:47;;;;;;;11.73;7.80;;;5.30;99.90;;;;;;6179740;23;20040;-79
2021/05/03 05:44:13;;;;;;;14.02;8.93;;;5.40;99.90;;;;;;6155784;23;20025;-79
2021/05/03 05:46:47;;;;;;;15.90;9.23;;;5.30;99.90;;;;;;6155599;23;20658;-79
2021/05/03 05:49:13;;;;;;;12.10;8.85;;;5.40;99.90;;;;;;6182162;23;20037;-79
2021/05/03 05:51:40;;;;;;;12.90;9.98;;;5.30;99.90;;;;;;6179391;23;20013;-80
2021/05/03 05:54:07;;;;;;;23.55;11.07;;;5.30;99.90;;;;;;6155849;23;20017;-81
2021/05/03 05:56:32;;;;;;;23.23;10.10;;;5.30;99.90;;;;;;6180767;23;20375;-80
2021/05/03 05:58:58;;;;;;;19.50;9.52;;;5.30;99.90;;;;;;6181143;23;20076;-80
2021/05/03 06:01:26;;;;;;;12.85;7.07;;;5.30;99.90;;;;;;6180484;23;20024;-79
2021/05/03 06:03:55;;;;;;;23.23;8.73;;;5.30;99.90;;;;;;6154375;23;20360;-80
2021/05/03 06:06:21;;;;;;;21.83;8.88;;;5.20;99.90;;;;;;6181721;23;20021;-80
2021/05/03 06:08:47;;;;;;;15.77;9.50;;;5.10;99.90;;;;;;6181184;23;20462;-82
2021/05/03 06:11:13;;;;;;;9.65;6.53;;;5.20;99.90;;;;;;6180437;23;20025;-80
2021/05/03 06:13:40;;;;;;;9.77;6.47;;;5.10;99.90;;;;;;6179099;23;20320;-80
2021/05/03 06:16:05;;;;;;;9.38;6.93;;;5.20;99.90;;;;;;6179220;23;20021;-80
2021/05/03 06:18:31;;;;;;;14.13;7.32;;;5.20;99.90;;;;;;6180669;23;20028;-81
2021/05/03 06:20:57;;;;;;;11.02;6.68;;;5.30;99.90;;;;;;6180299;23;20075;-80
2021/05/03 06:23:23;;;;;;;9.13;6.50;;;5.40;99.90;;;;;;6180803;23;20082;-80
2021/05/03 06:25:48;;;;;;;9.32;6.18;;;5.50;99.90;;;;;;6181324;23;20020;-80
2021/05/03 06:28:14;;;;;;;5.57;4.97;;;5.50;99.90;;;;;;6178887;23;20048;-80
2021/05/03 06:30:40;;;;;;;5.43;4.93;;;5.60;99.90;;;;;;6179709;23;20068;-81
2021/05/03 06:33:06;;;;;;;9.68;5.70;;;5.60;99.90;;;;;;6179352;23;20021;-80
2021/05/03 06:35:32;;;;;;;9.20;5.68;;;5.70;99.90;;;;;;6181664;23;20036;-81
2021/05/03 06:37:59;;;;;;;9.50;6.57;;;5.70;99.90;;;;;;6181768;23;20017;-81
2021/05/03 06:40:25;;;;;;;6.80;5.93;;;5.80;99.90;;;;;;6178821;23;20020;-81
2021/05/03 06:42:51;;;;;;;9.80;6.40;;;5.80;99.90;;;;;;6180384;23;20392;-81
2021/05/03 06:45:19;;;;;;;10.55;7.30;;;5.90;99.90;;;;;;6178803;23;20020;-81
2021/05/03 06:47:45;;;;;;;13.98;7.63;;;5.90;99.90;;;;;;6154693;23;20021;-80
2021/05/03 06:50:13;;;;;;;9.45;6.78;;;5.90;99.90;;;;;;6154261;23;20020;-82
2021/05/03 06:52:46;;;;;;;7.28;5.85;;;6.00;99.90;;;;;;6130518;23;20021;-81
2021/05/03 06:55:15;;;;;;;7.68;5.82;;;6.00;99.90;;;;;;6180697;23;20096;-81
2021/05/03 06:57:42;;;;;;;7.05;5.97;;;6.00;99.90;;;;;;6154900;23;20021;-81
2021/05/03 07:00:10;;;;;;;6.82;5.88;;;6.00;99.90;;;;;;6179861;23;20043;-81
2021/05/03 07:02:37;;;;;;;7.13;5.60;;;6.00;99.90;;;;;;6181147;23;20020;-81
2021/05/03 07:05:03;;;;;;;7.10;5.20;;;6.00;99.90;;;;;;6154059;23;20025;-82
2021/05/03 07:07:29;;;;;;;6.22;5.38;;;6.10;99.90;;;;;;6181031;23;20017;-81
2021/05/03 07:09:54;;;;;;;6.18;4.97;;;6.10;99.90;;;;;;6181056;23;20016;-82
2021/05/03 07:12:22;;;;;;;5.03;4.63;;;6.10;99.90;;;;;;6180513;23;20498;-82
2021/05/03 07:14:49;;;;;;;7.85;5.20;;;6.00;99.90;;;;;;6181083;23;20020;-82
2021/05/03 07:17:15;;;;;;;5.70;5.20;;;6.00;99.90;;;;;;6179721;23;20045;-81
2021/05/03 07:19:41;;;;;;;8.07;5.38;;;6.00;99.90;;;;;;6154430;23;20060;-80
2021/05/03 07:22:08;;;;;;;7.75;5.03;;;5.90;99.90;;;;;;6154395;23;20024;-84
2021/05/03 07:24:39;;;;;;;8.98;5.10;;;5.90;99.90;;;;;;6180863;23;20106;-82
2021/05/03 07:27:05;;;;;;;;;;;5.90;99.90;;;;;;6155199;23;20025;-83
2021/05/03 07:29:31;;;;;;;6.20;4.88;;;5.90;99.90;;;;;;6154757;23;19927;-82
2021/05/03 07:31:57;;;;;;;6.30;4.38;;;5.90;99.90;;;;;;6180823;23;20021;-82
2021/05/03 07:34:22;;;;;;;4.40;4.00;;;6.00;99.90;;;;;;6153815;23;20498;-81
2021/05/03 07:36:48;;;;;;;3.90;3.55;;;6.10;99.90;;;;;;6154751;23;20084;-83
2021/05/03 07:39:14;;;;;;;4.28;3.33;;;6.10;99.90;;;;;;6179969;23;20092;-82
2021/05/03 07:41:41;;;;;;;3.50;3.28;;;6.10;99.90;;;;;;6154845;23;20051;-81
2021/05/03 07:44:08;;;;;;;2.33;2.22;;;6.10;99.90;;;;;;6154101;23;20091;-83
2021/05/03 07:46:34;;;;;;;2.25;2.08;;;6.30;99.90;;;;;;6180945;23;20339;-82
2021/05/03 07:49:01;;;;;;;3.40;2.17;;;6.30;99.90;;;;;;6191441;23;20013;-82
2021/05/03 07:51:28;;;;;;;2.03;1.80;;;6.30;99.90;;;;;;6153855;23;20135;-82
2021/05/03 07:53:55;;;;;;;1.80;1.70;;;6.30;99.90;;;;;;6154233;23;20899;-82
2021/05/03 07:56:21;;;;;;;1.98;1.85;;;6.30;99.90;;;;;;6153995;23;20020;-82
2021/05/03 07:58:48;;;;;;;2.95;2.10;;;6.40;99.90;;;;;;6154360;23;20450;-83
2021/05/03 08:01:14;;;;;;;2.13;2.03;;;6.30;99.90;;;;;;6153531;23;20036;-82
2021/05/03 08:03:43;;;;;;;2.58;2.47;;;6.40;99.90;;;;;;6152530;23;20436;-83
2021/05/03 08:06:15;;;;;;;2.72;2.53;;;6.50;99.90;;;;;;6175821;23;20021;-88
2021/05/03 08:08:46;;;;;;;2.95;2.78;;;6.40;99.90;;;;;;6164449;23;20017;-84
2021/05/03 08:11:13;;;;;;;4.90;3.85;;;6.40;99.90;;;;;;6153670;23;20499;-85
2021/05/03 08:13:41;;;;;;;3.45;3.15;;;6.40;99.90;;;;;;6180692;23;20119;-83
2021/05/03 08:16:10;;;;;;;5.28;4.00;;;6.50;99.90;;;;;;6105493;23;20017;-85
2021/05/03 08:18:36;;;;;;;5.32;4.82;;;6.50;99.90;;;;;;6153977;23;20028;-83
2021/05/03 08:21:03;;;;;;;5.03;4.50;;;6.70;99.90;;;;;;6130461;23;20021;-84
2021/05/03 08:23:32;;;;;;;5.35;4.85;;;6.80;99.90;;;;;;6154149;23;20045;-84
2021/05/03 08:25:58;;;;;;;7.75;5.20;;;6.90;99.90;;;;;;6154205;23;20017;-83
2021/05/03 08:28:24;;;;;;;9.90;5.00;;;6.90;99.90;;;;;;6104567;23;20439;-83
2021/05/03 08:30:52;;;;;;;11.82;6.45;;;6.80;99.90;;;;;;6105666;23;20013;-84
2021/05/03 08:33:33;;;;;;;8.98;7.00;;;6.70;99.90;;;;;;6110716;23;20203;-86
2021/05/03 08:35:59;;;;;;;9.88;7.60;;;6.60;99.90;;;;;;6153479;23;20048;-85
2021/05/03 08:38:25;;;;;;;13.55;7.70;;;6.60;99.90;;;;;;6103993;23;20032;-85
2021/05/03 08:40:53;;;;;;;18.50;10.30;;;6.60;99.90;;;;;;6129809;23;20020;-86
2021/05/03 08:43:19;;;;;;;17.58;9.88;;;6.60;99.90;;;;;;6154047;23;20025;-85
2021/05/03 08:45:47;;;;;;;24.92;14.00;;;6.60;99.90;;;;;;6129299;23;20463;-85
2021/05/03 08:54:21;;;;;;;24.55;15.38;;;6.60;99.90;;;;;;6104873;23;20018;-84
2021/05/03 08:56:43;;;;;;;28.13;17.48;;;6.60;99.90;;;;;;6094941;23;20025;-83
2021/05/03 08:59:09;;;;;;;24.10;16.20;;;6.70;99.90;;;;;;6095429;23;20400;-82
2021/05/03 09:01:35;;;;;;;25.63;16.10;;;6.80;99.90;;;;;;6095692;23;20452;-82
2021/05/03 09:04:02;;;;;;;21.35;14.95;;;6.80;99.90;;;;;;6072266;23;20066;-83
2021/05/03 09:06:27;;;;;;;20.15;14.80;;;7.00;99.90;;;;;;6118865;23;20025;-83
2021/05/03 09:09:11;;;;;;;21.27;16.48;;;7.20;99.90;;;;;;6071773;23;20506;-84
2021/05/03 09:12:01;;;;;;;25.00;17.10;;;7.30;99.90;;;;;;6104065;23;20044;-84
2021/05/03 09:14:29;;;;;;;29.20;18.38;;;7.30;99.90;;;;;;6191301;23;20021;-83
2021/05/03 09:17:04;;;;;;;28.30;18.67;;;7.30;99.90;;;;;;6133309;23;20052;-83
2021/05/03 09:19:30;;;;;;;30.67;19.45;;;7.30;99.90;;;;;;6081658;23;20020;-83
2021/05/03 09:21:56;;;;;;;35.80;20.33;;;7.30;99.90;;;;;;6180994;23;20017;-82
2021/05/03 09:24:38;;;;;;;40.10;24.38;;;7.30;99.90;;;;;;6106243;23;20116;-82
2021/05/03 09:27:33;;;;;;;24.65;17.23;;;7.40;99.90;;;;;;6039772;23;20023;-83
2021/05/03 09:30:56;;;;;;;21.40;15.05;;;7.50;99.90;;;;;;6099910;23;20842;-84
2021/05/03 09:34:31;;;;;;;21.98;15.65;;;7.60;99.90;;;;;;6092080;23;20352;-82
2021/05/03 09:37:48;;;;;;;36.60;23.63;;;7.60;99.90;;;;;;5990390;23;20540;-83
2021/05/03 09:40:51;;;;;;;39.05;24.70;;;7.60;99.90;;;;;;5976166;23;20394;-82
2021/05/03 09:44:17;;;;;;;41.25;26.13;;;7.50;99.90;;;;;;6006441;23;20049;-83
2021/05/03 09:47:33;;;;;;;45.55;26.50;;;7.40;99.90;;;;;;6026932;23;20356;-82
2021/05/03 09:54:47;;;;;;;38.30;25.05;;;7.30;99.90;;;;;;5920074;24;20465;-83
2021/05/03 09:57:30;;;;;;;35.15;23.48;;;7.30;99.90;;;;;;5910902;24;20022;-83
2021/05/03 10:00:00;;;;;;;32.25;20.48;;;7.30;99.90;;;;;;5891405;24;20030;-80
2021/05/03 10:02:36;;;;;;;13.70;10.82;;;7.30;99.90;;;;;;5976057;23;20027;-81
2021/05/03 10:05:20;;;;;;;17.10;11.32;;;7.40;99.90;;;;;;6040947;23;20020;-81
2021/05/03 10:07:54;;;;;;;20.08;12.55;;;7.50;99.90;;;;;;6008214;23;20749;-80
2021/05/03 10:10:37;;;;;;;26.05;17.38;;;7.80;99.90;;;;;;6032461;23;20028;-85
2021/05/03 10:13:12;;;;;;;30.23;18.08;;;8.10;99.90;;;;;;6032477;23;20094;-81
2021/05/03 10:16:08;;;;;;;29.65;19.50;;;8.30;99.90;;;;;;6041040;23;20861;-81
2021/05/03 10:19:29;;;;;;;24.58;15.30;;;8.70;99.90;;;;;;6075458;23;20028;-81
2021/05/03 10:22:07;;;;;;;23.98;16.45;;;8.90;99.90;;;;;;6090024;23;20525;-82
2021/05/03 10:25:30;;;;;;;21.88;13.07;;;9.00;99.90;;;;;;6087883;23;20030;-81
2021/05/03 10:32:24;;;;;;;14.30;10.85;;;9.50;99.90;;;;;;6119445;23;20081;-86
2021/05/03 10:35:58;;;;;;;21.33;12.05;;;9.70;99.90;;;;;;6061053;23;20030;-86
2021/05/03 10:38:32;;;;;;;21.38;13.82;;;10.10;99.90;;;;;;6001959;23;20098;-87
2021/05/03 10:41:50;;;;;;;15.38;11.48;;;10.40;99.90;;;;;;6003842;23;20024;-85
2021/05/03 10:48:21;;;;;;;18.08;11.93;;;11.00;99.90;;;;;;5922173;23;20749;-85
2021/05/03 10:51:11;;;;;;;11.95;10.32;;;11.20;99.90;;;;;;5960784;23;20024;-85
2021/05/03 10:54:18;;;;;;;12.57;10.00;;;11.40;99.90;;;;;;5987853;23;20126;-86
2021/05/03 11:01:13;;;;;;;14.43;11.40;;;11.20;99.90;;;;;;6114009;23;20029;-86
2021/05/03 11:04:28;;;;;;;21.48;15.48;;;11.00;99.90;;;;;;5970051;24;20649;-87
2021/05/03 11:07:39;;;;;;;23.92;17.23;;;10.80;99.90;;;;;;5971041;24;20031;-87
2021/05/03 11:11:13;;;;;;;25.20;17.23;;;10.50;99.90;;;;;;5971325;24;20024;-88
2021/05/03 11:21:50;;;;;;;22.48;16.27;;;10.90;99.90;;;;;;5850748;24;20044;-85
2021/05/03 11:24:51;;;;;;;27.20;18.02;;;11.20;99.90;;;;;;5885824;23;20022;-85
2021/05/03 11:28:21;;;;;;;24.23;18.45;;;11.40;99.90;;;;;;6002672;23;20027;-85
2021/05/03 11:31:19;;;;;;;30.52;19.50;;;11.60;99.90;;;;;;5872109;24;20026;-86
2021/05/03 11:34:04;;;;;;;22.38;18.45;;;11.70;99.90;;;;;;5900139;24;20088;-87
2021/05/03 11:37:06;;;;;;;27.48;21.25;;;11.70;99.90;;;;;;5831018;24;20543;-86
2021/05/03 11:45:50;;;;;;;27.70;20.83;;;12.10;99.90;;;;;;5891945;24;20026;-86
2021/05/03 11:48:28;;;;;;;36.55;20.98;;;12.30;99.90;;;;;;5877559;24;20088;-86
2021/05/03 11:51:11;;;;;;;24.70;19.95;;;12.30;99.90;;;;;;5896521;24;20036;-85
2021/05/03 11:53:48;;;;;;;25.67;19.65;;;12.50;99.90;;;;;;5939129;24;20072;-84
2021/05/03 11:56:22;;;;;;;31.55;19.65;;;12.50;99.90;;;;;;5952125;24;20502;-86
2021/05/03 11:58:56;;;;;;;32.33;17.63;;;12.60;99.90;;;;;;5968580;23;20132;-84
2021/05/03 12:01:30;;;;;;;26.15;17.55;;;12.70;99.90;;;;;;5977646;23;20734;-87
2021/05/03 12:05:01;;;;;;;23.17;15.00;;;12.80;99.90;;;;;;5926336;23;20018;-86
2021/05/03 12:08:46;;;;;;;14.82;11.82;;;12.80;99.90;;;;;;6033061;23;20177;-88
2021/05/03 12:11:21;;;;;;;11.50;8.30;;;12.80;99.90;;;;;;6030607;23;20035;-86
2021/05/03 12:13:51;;;;;;;7.88;6.75;;;12.90;99.90;;;;;;6055998;23;20027;-85
2021/05/03 12:16:37;;;;;;;6.25;5.60;;;13.00;99.90;;;;;;6011262;23;20027;-84
2021/05/03 12:19:21;;;;;;;11.10;6.90;;;13.20;99.90;;;;;;6035971;23;20022;-84
2021/05/03 12:22:00;;;;;;;15.82;6.97;;;13.20;99.90;;;;;;6129269;23;20017;-84
2021/05/03 12:24:26;;;;;;;10.38;6.72;;;13.30;99.90;;;;;;6164127;23;20021;-85
2021/05/03 12:27:03;;;;;;;8.82;5.63;;;13.30;99.90;;;;;;6153174;23;20021;-84
2021/05/03 12:29:30;;;;;;;11.95;8.13;;;13.10;99.90;;;;;;6190477;23;20489;-84
2021/05/03 12:31:57;;;;;;;10.38;7.68;;;13.00;99.90;;;;;;6153703;23;20017;-84
2021/05/03 12:34:26;;;;;;;7.22;5.95;;;12.90;99.90;;;;;;6130219;23;20021;-84
2021/05/03 12:37:26;;;;;;;9.07;5.40;;;12.40;99.90;;;;;;6133158;23;20470;-85
2021/05/03 12:40:07;;;;;;;5.80;4.47;;;11.60;99.90;;;;;;6163282;23;20017;-85
2021/05/03 12:43:03;;;;;;;6.13;5.07;;;11.10;99.90;;;;;;6153619;23;20056;-84
2021/05/03 12:56:59;;;;;;;10.95;5.65;;;12.20;99.90;;;;;;6157084;23;20021;-88
2021/05/03 13:05:04;;;;;;;7.38;5.50;;;13.30;99.90;;;;;;6123575;23;20762;-85
2021/05/03 13:30:01;;;;;;;9.67;7.57;;;11.50;99.90;;;;;;6210077;23;20659;-85
2021/05/03 13:32:29;;;;;;;12.18;8.60;;;11.60;99.90;;;;;;6183897;23;20107;-84
2021/05/03 13:34:58;;;;;;;10.52;8.77;;;11.60;99.90;;;;;;6182370;23;20020;-85
2021/05/03 13:37:27;;;;;;;12.57;8.68;;;11.60;99.90;;;;;;6209238;23;20013;-85
2021/05/03 13:39:52;;;;;;;10.20;9.10;;;11.60;99.90;;;;;;6159885;23;20386;-85
2021/05/03 13:42:18;;;;;;;12.05;7.90;;;11.60;99.90;;;;;;6185751;23;20383;-86
2021/05/03 13:44:46;;;;;;;9.95;7.43;;;11.50;99.90;;;;;;6185277;23;20066;-88
2021/05/03 13:47:18;;;;;;;10.52;7.20;;;11.50;99.90;;;;;;6185704;23;20020;-85
2021/05/03 13:49:45;;;;;;;7.95;7.13;;;11.30;99.90;;;;;;6188271;23;20017;-87
2021/05/03 13:52:11;;;;;;;8.48;7.30;;;11.20;99.90;;;;;;6131139;23;20513;-86
2021/05/03 13:54:39;;;;;;;9.35;6.85;;;11.10;99.90;;;;;;6131105;23;20021;-86
2021/05/03 13:57:11;;;;;;;10.38;7.63;;;11.00;99.90;;;;;;6181233;23;20017;-85
2021/05/03 13:59:37;;;;;;;10.52;8.25;;;10.90;99.90;;;;;;6141262;23;20017;-84
2021/05/03 14:02:05;;;;;;;9.27;7.32;;;10.90;99.90;;;;;;6106037;23;20057;-85
2021/05/03 14:04:32;;;;;;;9.50;6.50;;;10.80;99.90;;;;;;6127760;23;20049;-86
2021/05/03 14:07:00;;;;;;;7.93;6.30;;;10.80;99.90;;;;;;6130686;23;20452;-86
2021/05/03 14:09:26;;;;;;;9.77;7.18;;;10.80;99.90;;;;;;6156374;23;20052;-88
2021/05/03 14:11:52;;;;;;;8.32;5.78;;;10.90;99.90;;;;;;6131380;23;20027;-87
2021/05/03 14:14:19;;;;;;;9.75;6.03;;;11.00;99.90;;;;;;6131625;23;20017;-87
2021/05/03 14:16:46;;;;;;;6.18;5.57;;;11.20;99.90;;;;;;6131388;23;20442;-90
2021/05/03 14:19:16;;;;;;;10.98;5.93;;;11.30;99.90;;;;;;6130436;23;20048;-86
2021/05/03 14:21:41;;;;;;;7.93;5.93;;;11.40;99.90;;;;;;6156792;23;20017;-86
2021/05/03 14:24:08;;;;;;;6.78;5.93;;;11.50;99.90;;;;;;6130222;23;20017;-85
2021/05/03 14:26:38;;;;;;;8.10;5.47;;;11.40;99.90;;;;;;6130206;23;20095;-85
2021/05/03 14:31:55;;;;;;;7.60;5.97;;;11.30;99.90;;;;;;6133769;23;20092;-86
2021/05/03 14:34:27;;;;;;;7.53;5.03;;;11.40;99.90;;;;;;6106028;23;20098;-85
2021/05/03 14:36:53;;;;;;;6.55;4.65;;;11.40;99.90;;;;;;6154450;23;20439;-86
2021/05/03 14:39:19;;;;;;;5.05;4.32;;;11.40;99.90;;;;;;6155922;23;20021;-86
2021/05/03 14:41:45;;;;;;;4.85;4.43;;;11.50;99.90;;;;;;6181505;23;20016;-85
2021/05/03 14:44:15;;;;;;;6.80;3.85;;;11.50;99.90;;;;;;6129781;23;20083;-85
2021/05/03 14:46:48;;;;;;;4.72;3.63;;;11.50;99.90;;;;;;6155959;23;20021;-87